首页
METAR-TAF:

METAR-TAF

机场 :

Schaffen

迪斯特, 比利时

纬度: 51-00N, 经度: 005-04E, 海拔: 30米

当前天气观测

该预报发布于25分钟前的19:55 UTC
风速5节,风向南转西南
温度 6°C
湿度 75%
气压 1013 hPa
能见度10公里或以上

METAR: EBDT 291955Z AUTO 21005KT 9999 FEW030/// SCT037/// BKN140/// 06/02 Q1013 BLU

时间: 21:20 (20:20 UTC)

预报

该预报发布于8小时和39分钟前的11:41 UTC
预报有效从29日的 13点(UTC)到 29日的 22点(UTC)
风速14节,风向西,有时为26节阵风
散云层高于3000英尺
短暂存在
从 29日的 13点(UTC)到 29日的 16点(UTC)
多云层高于3000英尺
小阵雨
几率 30% :
短暂存在
从 29日的 12点(UTC)到 29日的 14点(UTC)
风速14节,风向西,有时为30节阵风
能見度: 8000
多云层高于3000英尺
小阵雨
成为
从 29日的 20点(UTC)到 29日的 21点(UTC)
风速10节,风向西南,有时为17节阵风
散云层高于1500英尺

TAF: EBDT 291141Z 2913/2922 27014G26KT SCT030 TEMPO 2913/2916 -SHRA BKN030 PROB30 TEMPO 2912/2914 27014G30KT 8000 -SHRA BKN030 BECMG 2920/2921 23010G17KT SCT015

超过4000个机场的气象观测和天气预报(METAR&TAF报告)。

可查询的气象台以黄色和红色小点在地图上表示。

将鼠标移到小点上方,可查看气象台名称。

然后点击查看天气观测和预报。

如需切换地图:点击带黑十字的绿色按钮放大地图;点击带横线的绿色按钮缩小地图;或者点击绿色箭头查看邻近地区的地图。


METAR-TAF: